• Join FlightAware (Why Join?)
  • Login
  • US Flag 
03:59PM EDT


 

Airport Tracker/Info


-or-


 

Live Flight TrackerFlight Track Log ✈ CTL18 ✈ 16-May-2013 ✈ KYIP - KBKL

Flight Track Log - Related Links

Times and Time Zones

All times are in EDT time to prevent confusion due to time zone crossing. See the CTL18 flight status page for this flight to view local times or setup timezone preferences in your user account.

Time Position Orientation Groundspeed Altitude Reporting Facility
EDT Latitude Longitude Course Direction KTS MPH feet Rate Location/Type
09:21PM 42.2475 -83.5172 329° Northwest 102 117 1,200  Level Cleveland Center
09:22PM 42.2661 -83.5322 329° Northwest 138 159 1,600 780 Climbing Cleveland Center
09:23PM 42.2647 -83.5856 268° West 142 163 2,500 780 Climbing Cleveland Center
09:24PM 42.2408 -83.6181 225° Southwest 132 152 3,300 720 Climbing Cleveland Center
09:25PM 42.2075 -83.6136 174° South 131 151 3,900 660 Climbing Cleveland Center
09:26PM 42.1900 -83.5708 119° Southeast 134 154 4,600 420 Climbing Cleveland Center
09:27PM 42.1556 -83.5328 141° Southeast 154 177 4,900 180 Climbing Cleveland Center
09:28PM 42.1125 -83.5056 155° Southeast 175 201 5,000  Climbing Cleveland Center
09:29PM 42.0675 -83.4697 149° Southeast 172 198 5,000  Level Cleveland Center
09:30PM 42.0222 -83.4425 156° South 173 199 5,000  Level Cleveland Center
09:31PM 41.9944 -83.3883 125° Southeast 172 198 5,000 -60 Level Cleveland Center
09:32PM 41.9772 -83.3289 111° Southeast 171 197 4,900 -60 Descending Cleveland Center
09:33PM 41.9597 -83.2722 113° Southeast 172 198 4,900  Level Cleveland Center
09:34PM 41.9425 -83.2072 110° East 174 200 5,000  Climbing Cleveland Center
09:35PM 41.9272 -83.1481 109° East 171 197 5,000  Level Cleveland Center
09:36PM 41.9094 -83.0972 115° Southeast 173 199 5,000  Level Cleveland Center
09:37PM 41.8978 -83.0547 110° East 173 199 5,000  Level Cleveland Center
09:38PM 41.8806 -82.9928 110° East 174 200 5,000  Level Cleveland Center
09:39PM 41.8589 -82.9194 112° Southeast 175 201 5,000  Level Cleveland Center
09:40PM 41.8436 -82.8603 109° East 172 198 5,000  Level Cleveland Center
09:41PM 41.8300 -82.7986 106° East 175 201 5,000  Level Cleveland Center
09:42PM 41.8103 -82.7450 116° Southeast 178 205 5,000  Level Cleveland Center
09:43PM 41.7967 -82.6889 108° East 175 201 5,000  Level Cleveland Center
09:44PM 41.7792 -82.6269 111° Southeast 170 196 5,000 -60 Level Cleveland Center
09:45PM 41.7614 -82.5650 111° Southeast 174 200 4,900  Descending Cleveland Center
09:46PM 41.7439 -82.4922 108° East 171 197 5,000  Climbing Cleveland Center
09:47PM 41.7283 -82.4333 109° East 172 198 5,000  Level Cleveland Center
09:48PM 41.7106 -82.3717 111° Southeast 174 200 5,000  Level Cleveland Center
09:49PM 41.6947 -82.3128 110° East 170 196 5,000 -60 Level Cleveland Center
09:50PM 41.6808 -82.2597 109° East 174 200 4,900  Descending Cleveland Center
09:51PM 41.6628 -82.2036 113° Southeast 176 203 5,000 -180 Climbing Cleveland Center
09:52PM 41.6431 -82.1336 111° Southeast 188 216 4,600 -360 Descending Cleveland Center
09:53PM 41.6272 -82.0694 108° East 184 212 4,300 -420 Descending Cleveland Center
09:54PM 41.6092 -82.0078 111° Southeast 184 212 3,900 -420 Descending Cleveland Center
09:55PM 41.5911 -81.9464 111° Southeast 183 211 3,500 -480 Descending Cleveland Center
09:56PM 41.5711 -81.8847 113° Southeast 175 201 3,000 -600 Descending Cleveland Center
09:57PM 41.5489 -81.8289 118° Southeast 170 196 2,400 -600 Descending Cleveland Center